createdAt,value
2018-04-01T00:02:23.740Z,2.73
2018-04-01T00:04:51.267Z,2.90
2018-04-01T00:07:18.875Z,3.60
2018-04-01T00:09:46.627Z,3.90
2018-04-01T00:12:14.882Z,3.67
2018-04-01T00:14:42.400Z,3.37
2018-04-01T00:17:09.891Z,3.47
2018-04-01T00:19:37.541Z,3.07
2018-04-01T00:22:05.035Z,2.73
2018-04-01T00:24:32.540Z,2.63
2018-04-01T00:27:00.158Z,3.20
2018-04-01T00:29:29.460Z,3.30
2018-04-01T00:31:57.671Z,3.93
2018-04-01T00:34:25.508Z,4.20
2018-04-01T00:36:53.878Z,3.73
2018-04-01T00:39:22.359Z,4.03
2018-04-01T00:41:50.567Z,3.80
2018-04-01T00:44:18.108Z,3.53
2018-04-01T00:46:46.396Z,4.50
2018-04-01T00:49:14.135Z,3.70
2018-04-01T00:51:43.241Z,3.80
2018-04-01T00:54:11.923Z,4.03
2018-04-01T00:56:39.796Z,4.87
2018-04-01T00:59:08.238Z,3.70
2018-04-01T01:01:35.785Z,4.10
2018-04-01T01:04:03.493Z,3.80
2018-04-01T01:06:31.354Z,3.90
2018-04-01T01:08:59.000Z,4.77
2018-04-01T01:11:26.895Z,4.47
2018-04-01T01:13:54.319Z,3.57
2018-04-01T01:16:23.888Z,3.40
2018-04-01T01:18:51.593Z,4.50
2018-04-01T01:21:19.787Z,5.23
2018-04-01T01:23:48.368Z,4.27
2018-04-01T01:26:16.157Z,4.43
2018-04-01T01:28:43.667Z,4.37
2018-04-01T01:31:11.119Z,4.40
2018-04-01T01:33:38.618Z,4.50
2018-04-01T01:36:06.103Z,5.10
2018-04-01T01:38:33.649Z,4.97
2018-04-01T01:41:01.107Z,6.23
2018-04-01T01:43:29.057Z,5.00
2018-04-01T01:45:57.728Z,4.97
2018-04-01T01:48:25.278Z,4.60
2018-04-01T01:50:53.082Z,5.60
2018-04-01T01:53:21.023Z,4.87
2018-04-01T01:55:48.756Z,4.73
2018-04-01T01:58:16.761Z,4.20
2018-04-01T02:00:44.296Z,4.97
2018-04-01T02:03:11.804Z,4.90
2018-04-01T02:05:39.326Z,4.77
2018-04-01T02:08:07.536Z,5.57
2018-04-01T02:10:35.344Z,6.00
2018-04-01T02:13:03.353Z,5.00
2018-04-01T02:15:32.029Z,5.03
2018-04-01T02:18:00.620Z,4.80
2018-04-01T02:20:28.481Z,4.50
2018-04-01T02:22:56.376Z,4.87
2018-04-01T02:25:23.867Z,4.90
2018-04-01T02:27:51.346Z,4.90
2018-04-01T02:30:18.823Z,4.80
2018-04-01T02:32:47.041Z,4.97
2018-04-01T02:35:14.655Z,5.23
2018-04-01T02:37:43.240Z,4.90
2018-04-01T02:40:11.178Z,4.90
2018-04-01T02:42:38.837Z,5.37
2018-04-01T02:45:06.442Z,4.93
2018-04-01T02:47:33.925Z,5.17
2018-04-01T02:50:01.664Z,5.87
2018-04-01T02:52:30.024Z,5.60
2018-04-01T02:54:58.389Z,6.40
2018-04-01T02:57:26.796Z,5.93
2018-04-01T02:59:54.324Z,6.10
2018-04-01T03:02:21.948Z,5.40
2018-04-01T03:04:49.418Z,6.30
2018-04-01T03:07:17.232Z,6.23
2018-04-01T03:09:44.855Z,5.93
2018-04-01T03:12:12.300Z,5.60
2018-04-01T03:14:40.110Z,5.80
2018-04-01T03:17:08.666Z,5.00
2018-04-01T03:19:36.905Z,6.00
2018-04-01T03:22:04.457Z,5.27
2018-04-01T03:24:32.018Z,5.13
2018-04-01T03:26:59.530Z,4.90
2018-04-01T03:29:26.957Z,5.20
2018-04-01T03:31:54.532Z,4.70
2018-04-01T03:34:22.328Z,4.20
2018-04-01T03:36:50.568Z,5.03
2018-04-01T03:39:18.371Z,4.63
2018-04-01T03:41:46.303Z,6.20
2018-04-01T03:44:14.015Z,6.27
2018-04-01T03:46:42.292Z,6.97
2018-04-01T03:49:10.164Z,7.30
2018-04-01T03:51:38.426Z,7.80
2018-04-01T03:54:06.606Z,7.60
2018-04-01T03:56:34.884Z,7.40
2018-04-01T03:59:02.362Z,8.17
2018-04-01T04:01:29.887Z,7.80
2018-04-01T04:03:58.206Z,7.50
2018-04-01T04:06:26.041Z,6.90
2018-04-01T04:08:53.933Z,6.90
2018-04-01T04:11:21.411Z,6.30
2018-04-01T04:13:48.833Z,6.87
2018-04-01T04:16:17.402Z,5.80
2018-04-01T04:18:44.892Z,6.20
2018-04-01T04:21:12.375Z,6.00
2018-04-01T04:23:39.936Z,6.00
2018-04-01T04:26:07.474Z,6.30
2018-04-01T04:28:35.617Z,6.07
2018-04-01T04:31:03.237Z,4.90
2018-04-01T04:33:30.758Z,4.87
2018-04-01T04:35:58.702Z,4.30
2018-04-01T04:38:26.254Z,4.90
2018-04-01T04:40:54.431Z,5.13
2018-04-01T04:43:22.694Z,3.90
2018-04-01T04:45:50.242Z,3.93
2018-04-01T04:48:18.542Z,3.93
2018-04-01T04:50:47.182Z,5.00
2018-04-01T04:53:15.461Z,4.20
2018-04-01T04:55:43.260Z,4.30
2018-04-01T04:58:11.730Z,4.10
2018-04-01T05:00:39.194Z,3.87
2018-04-01T05:03:06.712Z,3.93
2018-04-01T05:05:34.324Z,4.00
2018-04-01T05:08:01.911Z,4.03
2018-04-01T05:10:29.832Z,3.63
2018-04-01T05:12:57.319Z,4.73
2018-04-01T05:15:25.902Z,4.83
2018-04-01T05:17:53.618Z,5.07
2018-04-01T05:20:21.179Z,5.20
2018-04-01T05:22:48.975Z,5.80
2018-04-01T05:25:17.420Z,5.90
2018-04-01T05:27:44.999Z,6.17
2018-04-01T05:30:12.855Z,6.17
2018-04-01T05:32:40.755Z,5.43
2018-04-01T05:35:09.164Z,5.80
2018-04-01T05:37:37.111Z,5.50
2018-04-01T05:40:05.375Z,4.50
2018-04-01T05:42:33.619Z,5.03
2018-04-01T05:45:01.152Z,4.67
2018-04-01T05:47:28.974Z,4.87
2018-04-01T05:49:56.809Z,5.00
2018-04-01T05:52:24.395Z,4.40
2018-04-01T05:54:52.786Z,5.27
2018-04-01T05:57:20.985Z,4.77
2018-04-01T05:59:48.520Z,5.20
2018-04-01T06:02:16.789Z,5.20
2018-04-01T06:04:45.043Z,6.20
2018-04-01T06:07:12.560Z,5.83
2018-04-01T06:09:40.111Z,5.80
2018-04-01T06:12:07.564Z,5.63
2018-04-01T06:14:35.639Z,5.97
2018-04-01T06:17:04.158Z,4.83
2018-04-01T06:19:31.692Z,5.07
2018-04-01T06:21:59.156Z,5.33
2018-04-01T06:24:26.680Z,5.10
2018-04-01T06:26:54.912Z,5.40
2018-04-01T06:29:22.471Z,4.73
2018-04-01T06:31:49.965Z,4.80
2018-04-01T06:34:18.295Z,4.90
2018-04-01T06:36:45.999Z,6.70
2018-04-01T06:39:14.574Z,6.30
2018-04-01T06:41:42.725Z,5.70
2018-04-01T06:44:10.213Z,6.77
2018-04-01T06:46:37.690Z,5.33
2018-04-01T06:49:05.196Z,5.97
2018-04-01T06:51:32.659Z,5.43
2018-04-01T06:54:00.174Z,6.10
2018-04-01T06:56:27.908Z,6.20
2018-04-01T06:58:55.460Z,5.63
2018-04-01T07:01:22.874Z,6.20
2018-04-01T07:03:50.333Z,5.87
2018-04-01T07:06:17.755Z,5.93
2018-04-01T07:08:45.431Z,5.03
2018-04-01T07:11:13.211Z,4.90
2018-04-01T07:13:40.694Z,6.07
2018-04-01T07:16:08.966Z,5.07
2018-04-01T07:18:36.426Z,5.40
2018-04-01T07:21:03.956Z,5.70
2018-04-01T07:23:31.772Z,5.40
2018-04-01T07:26:00.137Z,5.30
2018-04-01T07:28:27.628Z,5.40
2018-04-01T07:30:55.097Z,5.37
2018-04-01T07:33:22.679Z,5.70
2018-04-01T07:35:50.218Z,6.17
2018-04-01T07:38:17.772Z,5.60
2018-04-01T07:40:45.522Z,5.67
2018-04-01T07:43:13.991Z,7.23
2018-04-01T07:45:42.231Z,5.80
2018-04-01T07:48:10.135Z,5.67
2018-04-01T07:50:37.800Z,6.33
2018-04-01T07:53:05.641Z,6.20
2018-04-01T07:55:33.144Z,6.03
2018-04-01T07:58:01.704Z,6.53
2018-04-01T08:00:30.084Z,5.80
2018-04-01T08:02:58.351Z,6.10
2018-04-01T08:05:25.826Z,6.17
2018-04-01T08:07:53.692Z,6.80
2018-04-01T08:10:22.137Z,6.40
2018-04-01T08:12:49.674Z,5.20
2018-04-01T08:15:17.244Z,5.43
2018-04-01T08:17:45.157Z,6.30
2018-04-01T08:20:12.669Z,6.07
2018-04-01T08:22:41.711Z,5.70
2018-04-01T08:25:09.238Z,5.10
2018-04-01T08:27:36.875Z,6.03
2018-04-01T08:30:04.580Z,5.93
2018-04-01T08:32:33.271Z,5.90
2018-04-01T08:35:01.658Z,6.37
2018-04-01T08:37:29.891Z,6.17
2018-04-01T08:39:57.737Z,5.27
2018-04-01T08:42:25.463Z,5.10
2018-04-01T08:44:53.898Z,4.90
2018-04-01T08:47:21.778Z,5.80
2018-04-01T08:49:49.673Z,5.37
2018-04-01T08:52:18.048Z,5.10
2018-04-01T08:54:45.510Z,4.83
2018-04-01T08:57:13.932Z,5.47
2018-04-01T08:59:41.336Z,6.17
2018-04-01T09:02:09.206Z,5.60
2018-04-01T09:04:38.001Z,6.00
2018-04-01T09:07:06.691Z,5.60
2018-04-01T09:09:34.309Z,5.43
2018-04-01T09:12:02.104Z,5.53
2018-04-01T09:14:30.690Z,5.27
2018-04-01T09:16:59.278Z,7.13
2018-04-01T09:19:26.779Z,5.60
2018-04-01T09:21:54.304Z,6.00
2018-04-01T09:24:22.494Z,5.37
2018-04-01T09:26:50.329Z,4.83
2018-04-01T09:29:18.915Z,6.83
2018-04-01T09:31:47.195Z,6.57
2018-04-01T09:34:15.431Z,6.23
2018-04-01T09:36:42.911Z,5.80
2018-04-01T09:39:10.343Z,4.83
2018-04-01T09:41:37.853Z,5.17
2018-04-01T09:44:05.354Z,4.63
2018-04-01T09:46:33.578Z,4.63
2018-04-01T09:49:01.954Z,4.70
2018-04-01T09:51:30.452Z,4.90
2018-04-01T09:53:57.916Z,5.13
2018-04-01T09:56:25.419Z,4.10
2018-04-01T09:58:53.816Z,4.63
2018-04-01T10:01:22.165Z,4.40
2018-04-01T10:03:49.635Z,5.00
2018-04-01T10:06:17.638Z,4.80
2018-04-01T10:08:45.272Z,5.07
2018-04-01T10:11:12.821Z,5.33
2018-04-01T10:13:40.232Z,4.90
2018-04-01T10:16:07.757Z,4.77
2018-04-01T10:18:35.335Z,4.73
2018-04-01T10:21:02.843Z,4.60
2018-04-01T10:23:31.463Z,5.10
2018-04-01T10:25:59.876Z,4.70
2018-04-01T10:28:27.416Z,5.50
2018-04-01T10:30:55.907Z,4.83
2018-04-01T10:33:24.235Z,4.70
2018-04-01T10:35:52.421Z,4.23
2018-04-01T10:38:19.901Z,4.43
2018-04-01T10:40:47.864Z,4.03
2018-04-01T10:43:15.926Z,3.83
2018-04-01T10:45:43.419Z,4.30
2018-04-01T10:48:11.973Z,4.93
2018-04-01T10:50:39.746Z,4.07
2018-04-01T10:53:07.378Z,4.30
2018-04-01T10:55:35.634Z,4.00
2018-04-01T10:58:04.181Z,4.03
2018-04-01T11:00:31.633Z,3.60
2018-04-01T11:02:59.140Z,4.30
2018-04-01T11:05:26.578Z,3.90
2018-04-01T11:07:54.240Z,4.17
2018-04-01T11:10:22.022Z,4.53
2018-04-01T11:12:49.933Z,4.13
2018-04-01T11:15:18.207Z,4.87
2018-04-01T11:17:45.733Z,4.80
2018-04-01T11:20:14.522Z,4.03
2018-04-01T11:22:42.784Z,4.13
2018-04-01T11:25:10.580Z,4.87
2018-04-01T11:27:38.866Z,4.13
2018-04-01T11:30:07.190Z,4.40
2018-04-01T11:32:35.486Z,4.60
2018-04-01T11:35:03.043Z,4.73
2018-04-01T11:37:30.609Z,4.70
2018-04-01T11:39:58.394Z,4.60
2018-04-01T11:42:25.990Z,4.40
2018-04-01T11:44:53.470Z,5.33
2018-04-01T11:47:21.166Z,5.27
2018-04-01T11:49:48.666Z,5.37
2018-04-01T11:52:16.396Z,5.50
2018-04-01T11:54:45.082Z,5.60
2018-04-01T11:57:13.766Z,5.47
2018-04-01T11:59:42.132Z,5.33
2018-04-01T12:02:09.772Z,5.03
2018-04-01T12:04:37.574Z,5.00
2018-04-01T12:07:06.061Z,5.43
2018-04-01T12:09:34.328Z,5.40
2018-04-01T12:12:02.583Z,6.13
2018-04-01T12:14:30.162Z,7.10
2018-04-01T12:16:58.857Z,6.80
2018-04-01T12:19:27.442Z,6.53
2018-04-01T12:21:55.997Z,7.00
2018-04-01T12:24:24.199Z,7.70
2018-04-01T12:26:52.532Z,7.23
2018-04-01T12:29:19.991Z,6.03
2018-04-01T12:31:47.537Z,6.80
2018-04-01T12:34:15.109Z,6.63
2018-04-01T12:36:42.626Z,6.57
2018-04-01T12:39:10.126Z,6.90
2018-04-01T12:41:37.758Z,6.53
2018-04-01T12:44:05.312Z,6.60
2018-04-01T12:46:33.045Z,7.20
2018-04-01T12:49:01.384Z,7.53
2018-04-01T12:51:29.015Z,7.00
2018-04-01T12:53:56.476Z,6.57
2018-04-01T12:56:24.110Z,6.90
2018-04-01T12:58:51.796Z,6.63
2018-04-01T13:01:19.298Z,6.90
2018-04-01T13:03:47.308Z,7.30
2018-04-01T13:06:14.889Z,7.00
2018-04-01T13:08:42.411Z,6.43
2018-04-01T13:11:10.163Z,6.47
2018-04-01T13:13:38.511Z,7.87
2018-04-01T13:16:06.220Z,6.93
2018-04-01T13:18:33.687Z,6.63
2018-04-01T13:21:02.987Z,7.23
2018-04-01T13:23:30.506Z,6.40
2018-04-01T13:25:58.087Z,7.40
2018-04-01T13:28:26.627Z,6.40
2018-04-01T13:30:54.886Z,7.23
2018-04-01T13:33:22.618Z,6.33
2018-04-01T13:35:51.118Z,6.43
2018-04-01T13:38:18.967Z,5.90
2018-04-01T13:40:46.489Z,7.13
2018-04-01T13:43:14.286Z,6.03
2018-04-01T13:45:42.513Z,6.40
2018-04-01T13:48:10.354Z,5.97
2018-04-01T13:50:38.609Z,6.50
2018-04-01T13:53:06.477Z,5.40
2018-04-01T13:55:34.849Z,6.43
2018-04-01T13:58:03.037Z,6.70
2018-04-01T14:00:31.287Z,6.67
2018-04-01T14:02:58.735Z,6.00
2018-04-01T14:05:26.522Z,6.50
2018-04-01T14:07:54.907Z,6.97
2018-04-01T14:10:22.869Z,6.03
2018-04-01T14:12:51.165Z,7.60
2018-04-01T14:15:19.021Z,6.00
2018-04-01T14:17:47.433Z,7.40
2018-04-01T14:20:15.784Z,6.43
2018-04-01T14:22:43.232Z,6.33
2018-04-01T14:25:10.694Z,6.10
2018-04-01T14:27:38.860Z,6.23
2018-04-01T14:30:07.340Z,5.60
2018-04-01T14:32:35.944Z,6.73
2018-04-01T14:35:03.593Z,6.47
2018-04-01T14:37:31.215Z,7.40
2018-04-01T14:39:58.635Z,7.47
2018-04-01T14:42:26.093Z,7.37
2018-04-01T14:44:53.660Z,5.80
2018-04-01T14:47:21.168Z,6.30
2018-04-01T14:49:49.870Z,6.80
2018-04-01T14:52:17.649Z,5.77
2018-04-01T14:54:45.597Z,8.00
2018-04-01T14:57:13.226Z,7.60
2018-04-01T14:59:40.824Z,6.97
2018-04-01T15:02:09.125Z,5.90
2018-04-01T15:04:36.861Z,7.40
2018-04-01T15:07:05.126Z,6.57
2018-04-01T15:09:33.378Z,6.10
2018-04-01T15:12:00.859Z,7.00
2018-04-01T15:14:29.150Z,7.20
2018-04-01T15:16:57.676Z,6.53
2018-04-01T15:19:25.091Z,7.60
2018-04-01T15:21:53.627Z,7.53
2018-04-01T15:24:21.330Z,7.13
2018-04-01T15:26:49.809Z,6.93
2018-04-01T15:29:17.976Z,6.83
2018-04-01T15:31:46.215Z,7.20
2018-04-01T15:34:13.744Z,6.77
2018-04-01T15:36:41.684Z,6.90
2018-04-01T15:39:09.357Z,7.40
2018-04-01T15:41:37.115Z,6.10
2018-04-01T15:44:05.422Z,6.63
2018-04-01T15:46:33.032Z,6.47
2018-04-01T15:49:01.290Z,6.23
2018-04-01T15:51:29.106Z,6.67
2018-04-01T15:53:56.738Z,5.70
2018-04-01T15:56:25.289Z,5.83
2018-04-01T15:58:52.795Z,8.30
2018-04-01T16:01:21.025Z,8.50
2018-04-01T16:03:48.547Z,9.90
2018-04-01T16:06:17.116Z,7.33
2018-04-01T16:08:45.807Z,7.37
2018-04-01T16:11:14.416Z,8.70
2018-04-01T16:13:42.041Z,7.50
2018-04-01T16:16:09.614Z,7.80
2018-04-01T16:18:37.128Z,7.53
2018-04-01T16:21:04.679Z,7.10
2018-04-01T16:23:32.160Z,8.07
2018-04-01T16:25:59.729Z,7.13
2018-04-01T16:28:27.216Z,6.70
2018-04-01T16:30:54.708Z,6.40
2018-04-01T16:33:22.167Z,6.40
2018-04-01T16:35:49.625Z,6.27
2018-04-01T16:38:17.101Z,6.30
2018-04-01T16:40:45.094Z,6.20
2018-04-01T16:43:12.962Z,6.93
2018-04-01T16:45:41.546Z,6.50
2018-04-01T16:48:10.036Z,6.73
2018-04-01T16:50:37.669Z,6.70
2018-04-01T16:53:05.898Z,5.73
2018-04-01T16:55:33.459Z,6.13
2018-04-01T16:58:00.969Z,7.30
2018-04-01T17:00:28.643Z,6.23
2018-04-01T17:02:56.880Z,6.33
2018-04-01T17:05:24.579Z,6.30
2018-04-01T17:07:52.114Z,6.53
2018-04-01T17:10:20.657Z,6.00
2018-04-01T17:12:48.388Z,6.93
2018-04-01T17:15:16.746Z,6.27
2018-04-01T17:17:44.527Z,6.10
2018-04-01T17:20:14.418Z,6.00
2018-04-01T17:22:41.897Z,5.63
2018-04-01T17:25:10.224Z,6.07
2018-04-01T17:27:38.143Z,6.20
2018-04-01T17:30:06.399Z,5.67
2018-04-01T17:32:33.886Z,5.90
2018-04-01T17:35:02.361Z,5.80
2018-04-01T17:37:30.784Z,5.70
2018-04-01T17:39:58.353Z,5.17
2018-04-01T17:42:25.949Z,5.43
2018-04-01T17:44:53.502Z,5.30
2018-04-01T17:47:20.957Z,5.67
2018-04-01T17:49:48.746Z,5.30
2018-04-01T17:52:17.412Z,5.50
2018-04-01T17:54:46.736Z,5.20
2018-04-01T17:57:14.626Z,5.70
2018-04-01T17:59:43.061Z,5.50
2018-04-01T18:02:10.987Z,5.20
2018-04-01T18:04:39.568Z,5.73
2018-04-01T18:07:07.184Z,5.70
2018-04-01T18:09:34.971Z,5.90
2018-04-01T18:12:03.661Z,5.33
2018-04-01T18:14:31.888Z,5.00
2018-04-01T18:16:59.480Z,5.70
2018-04-01T18:19:27.944Z,5.83
2018-04-01T18:21:55.711Z,5.57
2018-04-01T18:24:23.509Z,5.10
2018-04-01T18:26:51.599Z,5.40
2018-04-01T18:29:20.271Z,5.47
2018-04-01T18:31:48.765Z,5.43
2018-04-01T18:34:16.448Z,5.57
2018-04-01T18:36:44.201Z,5.40
2018-04-01T18:39:11.840Z,4.60
2018-04-01T18:41:40.358Z,5.13
2018-04-01T18:44:08.123Z,6.20
2018-04-01T18:46:36.306Z,6.00
2018-04-01T18:49:04.978Z,5.00
2018-04-01T18:51:33.063Z,5.63
2018-04-01T18:54:01.413Z,5.97
2018-04-01T18:56:29.186Z,5.63
2018-04-01T18:58:57.716Z,5.70
2018-04-01T19:01:26.114Z,5.73
2018-04-01T19:03:54.050Z,6.10
2018-04-01T19:06:22.713Z,6.40
2018-04-01T19:08:50.602Z,6.37
2018-04-01T19:11:18.422Z,8.37
2018-04-01T19:13:46.149Z,6.20
2018-04-01T19:16:15.176Z,6.60
2018-04-01T19:18:43.262Z,6.03
2018-04-01T19:21:11.223Z,6.33
2018-04-01T19:23:39.167Z,7.00
2018-04-01T19:26:07.043Z,6.50
2018-04-01T19:28:34.744Z,7.20
2018-04-01T19:31:02.451Z,7.57
2018-04-01T19:33:33.323Z,7.10
2018-04-01T19:36:00.961Z,6.63
2018-04-01T19:38:28.540Z,7.10
2018-04-01T19:40:57.445Z,6.83
2018-04-01T19:43:25.806Z,6.80
2018-04-01T19:45:57.513Z,6.80
2018-04-01T19:48:26.120Z,6.60
2018-04-01T19:50:54.442Z,7.00
2018-04-01T19:53:22.155Z,6.10
2018-04-01T19:55:50.034Z,6.30
2018-04-01T19:58:18.073Z,6.10
2018-04-01T20:00:46.313Z,6.50
2018-04-01T20:03:14.223Z,6.80
2018-04-01T20:05:42.515Z,5.70
2018-04-01T20:08:10.724Z,5.57
2018-04-01T20:10:39.905Z,6.50
2018-04-01T20:13:08.052Z,7.13
2018-04-01T20:15:36.000Z,7.90
2018-04-01T20:18:03.808Z,7.57
2018-04-01T20:20:31.598Z,7.20
2018-04-01T20:23:00.571Z,8.23
2018-04-01T20:25:28.840Z,8.60
2018-04-01T20:27:56.908Z,6.77
2018-04-01T20:30:25.300Z,7.90
2018-04-01T20:32:53.311Z,8.77
2018-04-01T20:35:21.369Z,6.80
2018-04-01T20:37:49.344Z,8.23
2018-04-01T20:40:17.461Z,6.73
2018-04-01T20:42:45.267Z,6.77
2018-04-01T20:45:14.176Z,7.77
2018-04-01T20:47:43.345Z,7.37
2018-04-01T20:50:11.420Z,7.00
2018-04-01T20:52:39.298Z,6.97
2018-04-01T20:55:07.328Z,7.57
2018-04-01T20:57:35.535Z,6.70
2018-04-01T21:00:03.576Z,6.50
2018-04-01T21:02:32.066Z,7.00
2018-04-01T21:05:00.974Z,6.23
2018-04-01T21:07:28.560Z,6.20
2018-04-01T21:09:56.786Z,7.37
2018-04-01T21:12:24.549Z,6.50
2018-04-01T21:14:52.196Z,6.93
2018-04-01T21:17:20.660Z,5.70
2018-04-01T21:19:49.024Z,7.13
2018-04-01T21:22:17.545Z,6.60
2018-04-01T21:24:45.625Z,6.20
2018-04-01T21:27:13.391Z,6.37
2018-04-01T21:29:43.043Z,6.60
2018-04-01T21:32:10.577Z,6.20
2018-04-01T21:34:38.934Z,6.43
2018-04-01T21:37:06.693Z,6.27
2018-04-01T21:39:34.941Z,6.83
2018-04-01T21:42:03.452Z,6.03
2018-04-01T21:44:31.524Z,6.00
2018-04-01T21:46:59.922Z,6.40
2018-04-01T21:49:27.870Z,10.90
2018-04-01T21:51:55.997Z,10.53
2018-04-01T21:54:23.926Z,9.70
2018-04-01T21:56:51.653Z,9.63
2018-04-01T21:59:19.495Z,8.43
2018-04-01T22:01:47.689Z,7.80
2018-04-01T22:04:16.623Z,9.27
2018-04-01T22:06:44.435Z,8.53
2018-04-01T22:09:12.517Z,8.07
2018-04-01T22:11:40.077Z,7.43
2018-04-01T22:14:08.380Z,8.33
2018-04-01T22:16:36.332Z,7.47
2018-04-01T22:19:05.054Z,7.67
2018-04-01T22:21:34.024Z,6.90
2018-04-01T22:24:01.788Z,6.43
2018-04-01T22:26:29.778Z,7.30
2018-04-01T22:28:57.637Z,6.67
2018-04-01T22:31:25.246Z,6.90
2018-04-01T22:33:53.694Z,6.03
2018-04-01T22:36:22.657Z,6.80
2018-04-01T22:38:50.358Z,6.03
2018-04-01T22:41:18.112Z,6.30
2018-04-01T22:43:47.501Z,5.87
2018-04-01T22:46:16.330Z,6.70
2018-04-01T22:48:44.043Z,6.17
2018-04-01T22:51:12.714Z,5.87
2018-04-01T22:53:41.363Z,6.07
2018-04-01T22:56:09.271Z,5.57
2018-04-01T22:58:37.619Z,5.93
2018-04-01T23:01:05.445Z,5.70
2018-04-01T23:03:34.044Z,5.30
2018-04-01T23:06:02.503Z,5.70
2018-04-01T23:08:30.592Z,6.03
2018-04-01T23:10:58.358Z,4.93
2018-04-01T23:13:26.966Z,5.67
2018-04-01T23:15:55.398Z,5.93
2018-04-01T23:18:23.094Z,6.47
2018-04-01T23:20:50.959Z,5.47
2018-04-01T23:23:19.035Z,5.43
2018-04-01T23:25:46.899Z,6.17
2018-04-01T23:28:15.396Z,5.90
2018-04-01T23:30:43.189Z,5.60
2018-04-01T23:33:11.162Z,5.53
2018-04-01T23:35:40.432Z,5.10
2018-04-01T23:38:09.289Z,6.37
2018-04-01T23:40:37.571Z,5.43
2018-04-01T23:43:05.381Z,5.60
2018-04-01T23:45:33.386Z,6.00
2018-04-01T23:48:01.757Z,4.97
2018-04-01T23:50:29.742Z,5.20
2018-04-01T23:52:57.823Z,5.53
2018-04-01T23:55:25.664Z,5.77
2018-04-01T23:57:53.666Z,5.93
